Time;durP1;ratioP1;P1;durP2;ratioP2;P2;SDS_P1;SDS_P2;PMS_P1;PMS_P2;Temp;Humidity;BMP_temperature;BMP_pressure;BME280_temperature;BME280_humidity;BME280_pressure;Samples;Min_cycle;Max_cycle;Signal;HPM_P1;HPM_P2
2021/09/06 00:02:05;;;;;;;;;;;;;;;10.28;66.96;99031.42;1519989;93;20232;-87
2021/09/06 00:04:32;;;;;;;;;;;;;;;10.30;67.08;99034.34;1523558;93;24747;-87
2021/09/06 00:07:03;;;;;;;;;;;;;;;10.44;67.20;99028.27;1542382;92;20251;-86
2021/09/06 00:09:31;;;;;;;;;;;;;;;10.59;67.33;99028.65;1519461;92;26019;-86
2021/09/06 00:11:57;;;;;;;;;;;;;;;10.60;67.39;99029.03;1493217;94;24492;-86
2021/09/06 00:14:23;;;;;;;;;;;;;;;10.51;67.38;99026.98;1496854;94;20842;-86
2021/09/06 00:16:49;;;;;;;;;;;;;;;10.56;67.43;99030.16;1493337;94;20350;-86
2021/09/06 00:19:15;;;;;;;;;;;;;;;10.61;67.45;99028.56;1491052;94;21971;-86
2021/09/06 00:21:41;;;;;;;;;;;;;;;10.50;67.45;99029.22;1499453;94;25959;-86
2021/09/06 00:24:09;;;;;;;;;;;;;;;10.51;67.49;99024.83;1495582;94;24289;-86
2021/09/06 00:26:35;;;;;;;;;;;;;;;10.44;67.51;99033.04;1496744;94;20353;-86
2021/09/06 00:29:01;;;;;;;;;;;;;;;10.36;67.53;99033.98;1495475;94;20495;-85
2021/09/06 00:31:27;;;;;;;;;;;;;;;10.25;67.54;99033.77;1492752;94;20746;-85
2021/09/06 00:33:53;;;;;;;;;;;;;;;10.13;67.54;99030.52;1499862;94;21087;-85
2021/09/06 00:36:21;;;;;;;;;;;;;;;10.19;67.62;99030.20;1495603;94;20952;-85
2021/09/06 00:38:47;;;;;;;;;;;;;;;10.20;67.69;99026.63;1495607;94;20222;-85
2021/09/06 00:41:13;;;;;;;;;;;;;;;10.24;67.77;99025.54;1498116;94;20405;-85
2021/09/06 00:43:40;;;;;;;;;;;;;;;10.19;67.82;99026.28;1499449;94;20285;-85
2021/09/06 00:46:06;;;;;;;;;;;;;;;10.27;67.88;99025.34;1492530;94;26092;-86
2021/09/06 00:48:33;;;;;;;;;;;;;;;10.30;67.96;99024.34;1499768;94;24514;-86
2021/09/06 00:51:00;;;;;;;;;;;;;;;10.30;68.01;99023.03;1493579;95;20224;-86
2021/09/06 00:53:25;;;;;;;;;;;;;;;10.32;68.06;99020.68;1489931;94;24825;-86
2021/09/06 00:55:52;;;;;;;;;;;;;;;10.31;68.08;99026.02;1488848;94;22000;-85
2021/09/06 00:58:18;;;;;;;;;;;;;;;10.22;68.08;99022.16;1495413;94;26027;-85
2021/09/06 01:00:44;;;;;;;;;;;;;;;10.20;68.11;99024.02;1492411;95;24501;-85
2021/09/06 01:03:11;;;;;;;;;;;;;;;10.09;68.13;99026.41;1492828;94;20508;-85
2021/09/06 01:05:36;;;;;;;;;;;;;;;10.01;68.15;99027.31;1493615;94;24842;-86
2021/09/06 01:08:02;;;;;;;;;;;;;;;9.96;68.19;99022.35;1490156;95;22091;-86
2021/09/06 01:10:29;;;;;;;;;;;;;;;10.06;68.26;99031.80;1515390;93;26029;-86
2021/09/06 01:12:55;;;;;;;;;;;;;;;10.13;68.34;99026.60;1539231;93;24542;-86
2021/09/06 01:15:20;;;;;;;;;;;;;;;10.19;68.43;99028.89;1565764;90;20319;-86
2021/09/06 01:17:46;;;;;;;;;;;;;;;10.19;68.47;99028.89;1537394;92;20258;-86
2021/09/06 01:20:15;;;;;;;;;;;;;;;10.16;68.50;99022.52;1510824;93;20349;-86
2021/09/06 01:22:45;;;;;;;;;;;;;;;10.22;68.54;99026.55;1514805;94;26042;-86
2021/09/06 01:25:15;;;;;;;;;;;;;;;10.22;68.59;99015.63;1536272;92;24548;-86
2021/09/06 01:27:43;;;;;;;;;;;;;;;10.24;68.63;99025.54;1570625;90;20229;-86
2021/09/06 01:30:09;;;;;;;;;;;;;;;10.27;68.64;99025.81;1562757;90;24849;-86
2021/09/06 01:32:35;;;;;;;;;;;;;;;10.27;68.66;99024.50;1565682;90;22048;-86
2021/09/06 01:35:01;;;;;;;;;;;;;;;10.23;68.67;99023.00;1567260;90;21002;-86
2021/09/06 01:37:27;;;;;;;;;;;;;;;10.27;68.69;99022.73;1566925;90;20869;-85
2021/09/06 01:39:53;;;;;;;;;;;;;;;10.19;68.68;99026.28;1560714;90;20774;-85
2021/09/06 01:42:21;;;;;;;;;;;;;;;10.25;68.71;99024.61;1538328;92;24748;-85
2021/09/06 01:44:47;;;;;;;;;;;;;;;10.32;68.77;99021.98;1517712;94;22014;-85
2021/09/06 01:47:15;;;;;;;;;;;;;;;10.36;68.77;99021.36;1505424;94;21128;-85
2021/09/06 01:49:41;;;;;;;;;;;;;;;10.38;68.77;99022.94;1534869;92;24548;-87
2021/09/06 01:52:08;;;;;;;;;;;;;;;10.37;68.75;99023.02;1511788;94;20315;-86
2021/09/06 01:54:34;;;;;;;;;;;;;;;10.31;68.72;99026.84;1509198;93;24732;-86
2021/09/06 01:57:01;;;;;;;;;;;;;;;10.25;68.70;99029.00;1511301;93;22072;-86
2021/09/06 01:59:27;;;;;;;;;;;;;;;10.22;68.70;99031.78;1516149;93;26049;-86
2021/09/06 02:01:53;;;;;;;;;;;;;;;10.18;68.66;99028.98;1512907;93;24557;-87
2021/09/06 02:04:19;;;;;;;;;;;;;;;10.11;68.66;99031.53;1539559;92;20252;-87
2021/09/06 02:06:45;;;;;;;;;;;;;;;9.98;68.68;99032.73;1539864;92;20428;-87
2021/09/06 02:09:14;;;;;;;;;;;;;;;9.77;68.63;99042.62;1571652;90;20874;-86
2021/09/06 02:11:43;;;;;;;;;;;;;;;9.68;68.63;99047.07;1551380;89;28069;-86
2021/09/06 02:14:10;;;;;;;;;;;;;;;9.71;68.71;99041.66;1549237;91;24621;-86
2021/09/06 02:16:36;;;;;;;;;;;;;;;9.76;68.76;99043.58;1556436;91;20269;-86
2021/09/06 02:19:08;;;;;;;;;;;;;;;9.82;68.83;99047.12;1547299;91;24843;-87
2021/09/06 02:21:34;;;;;;;;;;;;;;;9.84;68.88;99051.80;1550041;91;22345;-86
2021/09/06 02:24:02;;;;;;;;;;;;;;;9.85;68.93;99048.73;1550704;91;21117;-86
2021/09/06 02:26:36;;;;;;;;;;;;;;;9.79;68.98;99047.31;1544525;91;24502;-87
2021/09/06 02:29:02;;;;;;;;;;;;;;;9.66;68.98;99049.77;1549642;91;20200;-86
2021/09/06 02:31:28;;;;;;;;;;;;;;;9.61;69.03;99049.64;1545204;91;24829;-86
2021/09/06 02:33:56;;;;;;;;;;;;;;;9.61;69.12;99046.56;1541822;91;20203;-85
2021/09/06 02:36:22;;;;;;;;;;;;;;;9.45;69.12;99048.35;1555367;91;25912;-86
2021/09/06 02:38:48;;;;;;;;;;;;;;;9.25;69.10;99051.23;1545944;91;24412;-86
2021/09/06 02:41:17;;;;;;;;;;;;;;;9.13;69.12;99055.80;1543666;91;20560;-86
2021/09/06 02:43:46;;;;;;;;;;;;;;;9.02;69.14;99052.47;1547142;91;25367;-86
2021/09/06 02:46:12;;;;;;;;;;;;;;;8.96;69.20;99052.79;1555745;91;22091;-86
2021/09/06 02:48:38;;;;;;;;;;;;;;;8.90;69.29;99057.03;1544648;91;21119;-86
2021/09/06 02:51:06;;;;;;;;;;;;;;;8.83;69.36;99060.91;1541381;91;24553;-86
2021/09/06 02:53:32;;;;;;;;;;;;;;;8.78;69.44;99060.31;1546052;91;20513;-86
2021/09/06 02:55:58;;;;;;;;;;;;;;;8.77;69.54;99060.77;1542460;91;20249;-87
2021/09/06 02:58:24;;;;;;;;;;;;;;;8.88;69.68;99057.59;1546537;91;21623;-86
2021/09/06 03:00:50;;;;;;;;;;;;;;;9.01;69.84;99062.98;1548441;91;21134;-86
2021/09/06 03:03:16;;;;;;;;;;;;;;;8.97;69.91;99061.47;1550234;91;20935;-86
2021/09/06 03:05:42;;;;;;;;;;;;;;;8.84;69.92;99055.23;1545609;91;20985;-86
2021/09/06 03:08:08;;;;;;;;;;;;;;;8.73;69.97;99055.77;1547715;91;24948;-86
2021/09/06 03:10:34;;;;;;;;;;;;;;;8.63;70.01;99051.49;1554165;89;20332;-86
2021/09/06 03:13:03;;;;;;;;;;;;;;;8.59;70.05;99055.66;1551065;91;20991;-86
2021/09/06 03:15:28;;;;;;;;;;;;;;;8.55;70.09;99052.83;1557288;91;24622;-86
2021/09/06 03:17:54;;;;;;;;;;;;;;;8.53;70.22;99046.84;1555279;91;20384;-86
2021/09/06 03:22:57;;;;;;;;;;;;;;;8.82;70.48;99047.47;1544086;91;22150;-86
2021/09/06 03:25:23;;;;;;;;;;;;;;;8.94;70.61;99042.06;1549113;91;26090;-86
2021/09/06 03:27:48;;;;;;;;;;;;;;;8.86;70.65;99043.77;1549799;91;20309;-86
2021/09/06 03:30:16;;;;;;;;;;;;;;;8.77;70.68;99042.95;1543699;91;20901;-85
2021/09/06 03:32:46;;;;;;;;;;;;;;;8.77;70.74;99042.50;1538651;91;24929;-86
2021/09/06 03:35:21;;;;;;;;;;;;;;;8.94;70.83;99043.38;1546594;91;22932;-86
2021/09/06 03:37:47;;;;;;;;;;;;;;;9.10;70.92;99041.16;1545121;91;26156;-86
2021/09/06 03:40:13;;;;;;;;;;;;;;;9.22;71.00;99044.39;1547543;91;24401;-85
2021/09/06 03:42:39;;;;;;;;;;;;;;;9.33;71.03;99039.06;1546792;91;20306;-85
2021/09/06 03:45:05;;;;;;;;;;;;;;;9.40;71.05;99039.08;1545377;91;24834;-85
2021/09/06 03:47:32;;;;;;;;;;;;;;;9.42;71.04;99037.24;1551403;91;22039;-85
2021/09/06 03:49:58;;;;;;;;;;;;;;;9.41;71.02;99034.25;1548472;91;26898;-85
2021/09/06 03:52:24;;;;;;;;;;;;;;;9.40;70.97;99034.70;1541179;91;20352;-85
2021/09/06 03:54:50;;;;;;;;;;;;;;;9.31;70.93;99032.61;1548646;91;20807;-86
2021/09/06 03:57:16;;;;;;;;;;;;;;;9.17;70.90;99045.10;1545779;91;20812;-86
2021/09/06 03:59:42;;;;;;;;;;;;;;;9.05;70.84;99045.80;1543581;91;21972;-86
2021/09/06 04:02:10;;;;;;;;;;;;;;;9.11;70.87;99048.05;1547483;91;26700;-86
2021/09/06 04:04:42;;;;;;;;;;;;;;;9.14;70.87;99042.67;1548289;91;25272;-86
2021/09/06 04:07:10;;;;;;;;;;;;;;;9.09;70.83;99043.38;1548937;91;20343;-86
2021/09/06 04:09:36;;;;;;;;;;;;;;;9.03;70.85;99048.09;1543542;91;24738;-86
2021/09/06 04:12:02;;;;;;;;;;;;;;;9.07;70.87;99045.22;1555904;91;21974;-86
2021/09/06 04:14:32;;;;;;;;;;;;;;;9.10;70.91;99039.02;1564471;91;25984;-86
2021/09/06 04:17:02;;;;;;;;;;;;;;;9.15;70.92;99048.73;1564601;91;25310;-86
2021/09/06 04:19:31;;;;;;;;;;;;;;;9.14;70.94;99048.36;1565324;91;20524;-86
2021/09/06 04:22:01;;;;;;;;;;;;;;;9.00;70.92;99046.96;1562312;91;25628;-86
2021/09/06 04:24:25;;;;;;;;;;;;;;;8.98;70.95;99050.11;1564140;91;22029;-86
2021/09/06 04:26:52;;;;;;;;;;;;;;;9.04;70.98;99052.39;1567733;91;26183;-86
2021/09/06 04:29:18;;;;;;;;;;;;;;;9.13;71.02;99058.41;1566358;91;24453;-86
2021/09/06 04:31:44;;;;;;;;;;;;;;;9.15;71.08;99060.03;1563694;91;20183;-86
2021/09/06 04:34:10;;;;;;;;;;;;;;;9.20;71.12;99059.78;1565823;91;24729;-86
2021/09/06 04:36:36;;;;;;;;;;;;;;;9.24;71.20;99062.59;1569739;91;20249;-86
2021/09/06 04:39:03;;;;;;;;;;;;;;;9.08;71.19;99060.43;1564385;91;26116;-86
2021/09/06 04:41:31;;;;;;;;;;;;;;;8.89;71.17;99064.47;1541942;91;24605;-86
2021/09/06 04:44:03;;;;;;;;;;;;;;;8.80;71.18;99063.66;1564093;91;20256;-86
2021/09/06 04:46:31;;;;;;;;;;;;;;;8.79;71.22;99064.58;1562728;89;20505;-86
2021/09/06 04:48:57;;;;;;;;;;;;;;;8.79;71.33;99060.66;1563584;91;22022;-86
2021/09/06 04:51:23;;;;;;;;;;;;;;;8.81;71.40;99054.91;1566615;91;21057;-86
2021/09/06 04:53:49;;;;;;;;;;;;;;;8.94;71.48;99057.73;1564264;91;24510;-86
2021/09/06 04:56:15;;;;;;;;;;;;;;;9.01;71.58;99055.15;1565634;91;20382;-86
2021/09/06 04:58:41;;;;;;;;;;;;;;;9.15;71.72;99056.57;1565619;91;24818;-86
2021/09/06 05:01:13;;;;;;;;;;;;;;;9.23;71.78;99052.61;1632225;85;20266;-85
2021/09/06 05:03:43;;;;;;;;;;;;;;;9.21;71.82;99064.08;1617864;87;26698;-85
2021/09/06 05:06:18;;;;;;;;;;;;;;;9.17;71.84;99061.23;1621155;87;24506;-85
2021/09/06 05:08:44;;;;;;;;;;;;;;;9.14;71.87;99062.72;1622186;87;20516;-85
2021/09/06 05:11:10;;;;;;;;;;;;;;;9.09;71.93;99072.56;1625141;87;20282;-86
2021/09/06 05:13:36;;;;;;;;;;;;;;;9.05;71.96;99077.58;1638404;85;20306;-85
2021/09/06 05:16:02;;;;;;;;;;;;;;;9.02;72.02;99073.81;1626867;87;21093;-85
2021/09/06 05:18:28;;;;;;;;;;;;;;;9.18;72.11;99074.67;1625720;87;24565;-85
2021/09/06 05:20:54;;;;;;;;;;;;;;;9.33;72.23;99080.86;1625200;87;20308;-85
2021/09/06 05:23:22;;;;;;;;;;;;;;;9.41;72.34;99080.80;1605719;87;20483;-85
2021/09/06 05:25:48;;;;;;;;;;;;;;;9.55;72.44;99089.17;1626481;87;22016;-85
2021/09/06 05:28:14;;;;;;;;;;;;;;;9.59;72.48;99085.03;1618587;87;26156;-85
2021/09/06 05:30:40;;;;;;;;;;;;;;;9.56;72.50;99083.88;1626344;86;20889;-86
2021/09/06 05:33:06;;;;;;;;;;;;;;;9.59;72.54;99090.25;1624710;87;20255;-86
2021/09/06 05:35:32;;;;;;;;;;;;;;;9.56;72.57;99090.41;1625667;87;20260;-86
2021/09/06 05:38:01;;;;;;;;;;;;;;;9.48;72.57;99091.31;1622525;87;22035;-86
2021/09/06 05:40:27;;;;;;;;;;;;;;;9.44;72.60;99092.84;1621712;87;26053;-86
2021/09/06 05:42:53;;;;;;;;;;;;;;;9.41;72.63;99088.64;1619954;87;20338;-86
2021/09/06 05:45:27;;;;;;;;;;;;;;;9.46;72.72;99091.00;1624458;87;20206;-86
2021/09/06 05:47:53;;;;;;;;;;;;;;;9.58;72.82;99090.33;1624474;87;24742;-87
2021/09/06 05:50:28;;;;;;;;;;;;;;;9.64;72.91;99093.91;1624029;87;20313;-87
2021/09/06 05:53:00;;;;;;;;;;;;;;;9.68;73.00;99090.20;1624914;87;26867;-87
2021/09/06 05:55:26;;;;;;;;;;;;;;;9.78;73.10;99092.67;1628214;87;24510;-86
2021/09/06 05:57:58;;;;;;;;;;;;;;;9.91;73.18;99088.45;1621152;87;20292;-87
2021/09/06 06:00:26;;;;;;;;;;;;;;;10.06;73.28;99089.34;1622912;87;24685;-86
2021/09/06 06:02:53;;;;;;;;;;;;;;;10.24;73.38;99084.39;1621166;87;23088;-87
2021/09/06 06:05:20;;;;;;;;;;;;;;;10.40;73.44;99081.27;1619542;87;26068;-87
2021/09/06 06:07:52;;;;;;;;;;;;;;;10.42;73.45;99092.45;1619026;87;24489;-86
2021/09/06 06:10:18;;;;;;;;;;;;;;;10.41;73.47;99089.48;1624138;87;20498;-86
2021/09/06 06:12:44;;;;;;;;;;;;;;;10.41;73.46;99097.80;1626737;87;24815;-85
2021/09/06 06:15:10;;;;;;;;;;;;;;;10.41;73.48;99099.11;1620651;87;20235;-84
2021/09/06 06:17:42;;;;;;;;;;;;;;;10.42;73.50;99102.08;1621400;87;20908;-84
2021/09/06 06:20:07;;;;;;;;;;;;;;;10.36;73.50;99099.39;1615956;86;24493;-85
2021/09/06 06:22:33;;;;;;;;;;;;;;;10.50;73.56;99103.80;1624938;87;21177;-85
2021/09/06 06:24:59;;;;;;;;;;;;;;;10.54;73.58;99105.75;1620951;87;24783;-85
2021/09/06 06:27:34;;;;;;;;;;;;;;;10.61;73.63;99104.47;1621373;87;22311;-85
2021/09/06 06:30:00;;;;;;;;;;;;;;;10.64;73.71;99107.73;1617512;87;25993;-84
2021/09/06 06:32:26;;;;;;;;;;;;;;;10.62;73.75;99108.31;1625274;87;24396;-84
2021/09/06 06:34:52;;;;;;;;;;;;;;;10.62;73.75;99112.23;1626970;87;20395;-84
2021/09/06 06:37:18;;;;;;;;;;;;;;;10.68;73.81;99106.64;1627297;87;24752;-84
2021/09/06 06:39:44;;;;;;;;;;;;;;;10.74;73.86;99114.60;1625250;87;20454;-84
2021/09/06 06:42:13;;;;;;;;;;;;;;;10.77;73.92;99115.71;1627864;87;26934;-84
2021/09/06 06:44:40;;;;;;;;;;;;;;;10.94;74.01;99122.56;1619656;87;24559;-84
2021/09/06 06:47:06;;;;;;;;;;;;;;;11.07;74.10;99116.50;1617859;87;20292;-84
2021/09/06 06:49:32;;;;;;;;;;;;;;;10.99;74.08;99121.81;1624419;87;24778;-84
2021/09/06 06:51:58;;;;;;;;;;;;;;;10.93;74.09;99117.78;1627083;87;22054;-84
2021/09/06 06:54:27;;;;;;;;;;;;;;;11.04;74.13;99121.91;1625808;87;26060;-84
2021/09/06 06:56:53;;;;;;;;;;;;;;;11.08;74.17;99126.02;1629598;87;24557;-84
2021/09/06 06:59:19;;;;;;;;;;;;;;;11.07;74.19;99119.59;1620130;87;20206;-85
2021/09/06 07:01:45;;;;;;;;;;;;;;;11.07;74.21;99120.43;1629567;86;24991;-85
2021/09/06 07:04:14;;;;;;;;;;;;;;;11.11;74.25;99123.23;1636889;86;22068;-85
2021/09/06 07:06:39;;;;;;;;;;;;;;;11.15;74.30;99119.94;1632630;86;25925;-85
2021/09/06 07:09:06;;;;;;;;;;;;;;;11.31;74.41;99128.08;1632544;86;20844;-85
2021/09/06 07:11:32;;;;;;;;;;;;;;;11.35;74.43;99128.72;1637581;86;20251;-85
2021/09/06 07:14:01;;;;;;;;;;;;;;;11.39;74.47;99130.70;1632417;87;22103;-85
2021/09/06 07:16:27;;;;;;;;;;;;;;;11.39;74.46;99128.08;1633970;86;22057;-85
2021/09/06 07:18:53;;;;;;;;;;;;;;;11.49;74.49;99139.67;1637430;86;21129;-85
2021/09/06 07:21:19;;;;;;;;;;;;;;;11.52;74.52;99142.94;1632939;86;20312;-85
2021/09/06 07:23:47;;;;;;;;;;;;;;;11.53;74.53;99139.84;1629315;85;20277;-85
2021/09/06 07:26:13;;;;;;;;;;;;;;;11.52;74.52;99139.47;1633737;86;25473;-85
2021/09/06 07:28:41;;;;;;;;;;;;;;;11.47;74.51;99141.54;1637443;86;21976;-85
2021/09/06 07:31:09;;;;;;;;;;;;;;;11.49;74.52;99142.30;1637843;86;25988;-85
2021/09/06 07:33:35;;;;;;;;;;;;;;;11.50;74.52;99146.14;1634079;86;25100;-85
2021/09/06 07:36:02;;;;;;;;;;;;;;;11.59;74.57;99147.33;1631380;86;20331;-85
2021/09/06 07:38:28;;;;;;;;;;;;;;;11.65;74.63;99149.58;1633592;86;24804;-84
2021/09/06 07:40:54;;;;;;;;;;;;;;;11.71;74.66;99148.73;1633469;86;21890;-84
2021/09/06 07:43:20;;;;;;;;;;;;;;;11.75;74.73;99145.46;1631267;86;26018;-84
2021/09/06 07:45:47;;;;;;;;;;;;;;;11.86;74.76;99148.72;1635091;86;24448;-85
2021/09/06 07:48:14;;;;;;;;;;;;;;;12.01;74.87;99144.64;1633239;86;20299;-85
2021/09/06 07:50:40;;;;;;;;;;;;;;;12.02;74.92;99145.02;1635290;87;24746;-85
2021/09/06 07:53:07;;;;;;;;;;;;;;;12.02;74.88;99148.95;1630894;87;22063;-85
2021/09/06 07:55:35;;;;;;;;;;;;;;;12.11;74.90;99148.81;1631353;86;26044;-85
2021/09/06 07:58:00;;;;;;;;;;;;;;;12.28;74.96;99151.19;1630896;86;24468;-85
2021/09/06 08:00:26;;;;;;;;;;;;;;;12.36;75.00;99151.55;1634558;86;20358;-85
2021/09/06 08:02:53;;;;;;;;;;;;;;;12.39;74.98;99154.42;1633255;86;20274;-85
2021/09/06 08:05:20;;;;;;;;;;;;;;;12.53;74.99;99155.69;1636141;86;22088;-85
2021/09/06 08:07:46;;;;;;;;;;;;;;;12.65;75.02;99154.87;1637187;86;25836;-85
2021/09/06 08:10:18;;;;;;;;;;;;;;;12.78;75.06;99153.56;1636863;86;24470;-84
2021/09/06 08:12:44;;;;;;;;;;;;;;;12.91;75.08;99155.27;1637260;87;20280;-85
2021/09/06 08:15:11;;;;;;;;;;;;;;;13.11;75.14;99153.05;1631651;86;20215;-85
2021/09/06 08:17:37;;;;;;;;;;;;;;;13.21;75.15;99158.08;1627603;87;22060;-85
2021/09/06 08:20:03;;;;;;;;;;;;;;;13.35;75.13;99152.72;1630986;86;21062;-85
2021/09/06 08:22:33;;;;;;;;;;;;;;;13.32;75.02;99154.23;1639020;86;24429;-85
2021/09/06 08:24:59;;;;;;;;;;;;;;;13.29;74.90;99159.25;1631925;86;20539;-85
2021/09/06 08:27:26;;;;;;;;;;;;;;;13.25;74.74;99160.88;1636538;86;24815;-85
2021/09/06 08:29:52;;;;;;;;;;;;;;;13.29;74.63;99163.19;1626144;86;22011;-85
2021/09/06 08:32:18;;;;;;;;;;;;;;;13.33;74.55;99158.55;1634042;86;21051;-84
2021/09/06 08:34:44;;;;;;;;;;;;;;;13.43;74.51;99159.58;1634803;87;24713;-84
2021/09/06 08:37:11;;;;;;;;;;;;;;;13.45;74.42;99167.38;1640392;86;20177;-85
2021/09/06 08:39:37;;;;;;;;;;;;;;;13.47;74.33;99163.70;1636492;86;24773;-85
2021/09/06 08:42:04;;;;;;;;;;;;;;;13.48;74.21;99164.05;1636625;86;22123;-85
2021/09/06 08:44:30;;;;;;;;;;;;;;;13.52;74.14;99164.22;1634100;87;26646;-85
2021/09/06 08:46:59;;;;;;;;;;;;;;;13.67;74.14;99159.19;1637523;87;20302;-85
2021/09/06 08:49:31;;;;;;;;;;;;;;;13.78;74.15;99164.53;1637120;86;20364;-85
2021/09/06 08:51:58;;;;;;;;;;;;;;;13.92;74.14;99170.58;1631600;86;24817;-85
2021/09/06 08:54:28;;;;;;;;;;;;;;;13.95;74.06;99163.80;1637593;86;22628;-84
2021/09/06 08:56:54;;;;;;;;;;;;;;;13.97;73.93;99164.03;1636076;86;26001;-84
2021/09/06 08:59:23;;;;;;;;;;;;;;;14.03;73.84;99168.02;1651907;85;24169;-85
2021/09/06 09:01:51;;;;;;;;;;;;;;;14.07;73.78;99170.81;1634172;87;20480;-85
2021/09/06 09:04:19;;;;;;;;;;;;;;;14.20;73.77;99165.00;1632472;87;25409;-84
2021/09/06 09:06:52;;;;;;;;;;;;;;;14.22;73.70;99167.06;1692589;83;22082;-85
2021/09/06 09:09:37;;;;;;;;;;;;;;;14.29;73.67;99168.30;1689851;83;26038;-85
2021/09/06 09:12:05;;;;;;;;;;;;;;;14.37;73.64;99171.70;1689751;83;24483;-85
2021/09/06 09:14:35;;;;;;;;;;;;;;;14.45;73.57;99170.67;1689701;83;20258;-85
2021/09/06 09:17:01;;;;;;;;;;;;;;;14.48;73.46;99175.23;1688598;83;24835;-85
2021/09/06 09:19:30;;;;;;;;;;;;;;;14.52;73.35;99170.09;1689616;84;21941;-85
2021/09/06 09:21:58;;;;;;;;;;;;;;;14.62;73.27;99168.92;1690577;83;25973;-85
2021/09/06 09:24:27;;;;;;;;;;;;;;;14.68;73.20;99167.63;1689760;83;25207;-85
2021/09/06 09:26:55;;;;;;;;;;;;;;;14.75;73.07;99163.58;1689215;83;20565;-85
2021/09/06 09:29:21;;;;;;;;;;;;;;;14.84;72.97;99160.24;1689366;83;25457;-85
2021/09/06 09:31:54;;;;;;;;;;;;;;;14.91;72.88;99157.04;1690818;83;22114;-85
2021/09/06 09:34:20;;;;;;;;;;;;;;;14.96;72.74;99159.32;1689098;83;26069;-85
2021/09/06 09:36:48;;;;;;;;;;;;;;;15.02;72.65;99161.48;1689522;83;25245;-85
2021/09/06 09:39:17;;;;;;;;;;;;;;;15.10;72.56;99161.77;1688749;83;20217;-84
2021/09/06 09:41:45;;;;;;;;;;;;;;;15.15;72.45;99166.20;1687773;83;24761;-84
2021/09/06 09:44:21;;;;;;;;;;;;;;;15.25;72.41;99167.64;1690222;83;22007;-84
2021/09/06 09:46:55;;;;;;;;;;;;;;;15.37;72.35;99159.62;1688808;84;26680;-84
2021/09/06 09:49:27;;;;;;;;;;;;;;;15.46;72.29;99160.22;1686939;84;24462;-85
2021/09/06 09:51:53;;;;;;;;;;;;;;;15.53;72.16;99157.14;1688363;84;20317;-85
2021/09/06 09:54:20;;;;;;;;;;;;;;;15.59;72.08;99151.38;1686577;84;24767;-85
2021/09/06 09:56:47;;;;;;;;;;;;;;;15.64;71.93;99157.13;1687812;84;22017;-85
2021/09/06 09:59:14;;;;;;;;;;;;;;;15.74;71.87;99147.52;1688437;84;25969;-85
2021/09/06 10:01:45;;;;;;;;;;;;;;;15.84;71.80;99154.58;1687604;84;24501;-85
2021/09/06 10:04:12;;;;;;;;;;;;;;;15.93;71.72;99149.03;1681883;84;20248;-85
2021/09/06 10:06:39;;;;;;;;;;;;;;;16.00;71.60;99143.62;1686454;84;25486;-85
2021/09/06 10:09:08;;;;;;;;;;;;;;;16.12;71.53;99144.44;1684609;84;22069;-85
2021/09/06 10:11:39;;;;;;;;;;;;;;;16.20;71.44;99140.70;1684473;84;26024;-85
2021/09/06 10:14:26;;;;;;;;;;;;;;;16.27;71.29;99143.19;1682541;84;24396;-85
2021/09/06 10:17:02;;;;;;;;;;;;;;;16.25;71.04;99139.37;1681931;84;20180;-85
2021/09/06 10:19:30;;;;;;;;;;;;;;;16.26;70.77;99140.18;1684666;84;24904;-85
2021/09/06 10:21:59;;;;;;;;;;;;;;;16.35;70.65;99132.00;1683105;84;22780;-85
2021/09/06 10:24:26;;;;;;;;;;;;;;;16.40;70.47;99129.81;1686856;84;26820;-85
2021/09/06 10:26:54;;;;;;;;;;;;;;;16.39;70.17;99136.06;1682676;84;24456;-85
2021/09/06 10:29:20;;;;;;;;;;;;;;;16.38;69.87;99133.89;1686870;84;20229;-84
2021/09/06 10:32:00;;;;;;;;;;;;;;;16.41;69.60;99133.66;1687222;84;24932;-85
2021/09/06 10:34:32;;;;;;;;;;;;;;;16.45;69.45;99127.62;1683851;84;22096;-85
2021/09/06 10:36:59;;;;;;;;;;;;;;;16.48;69.17;99131.33;1683725;83;26109;-85
2021/09/06 10:39:25;;;;;;;;;;;;;;;16.58;69.01;99120.38;1683917;84;24012;-85
2021/09/06 10:41:52;;;;;;;;;;;;;;;16.63;68.86;99122.18;1686140;84;20290;-84
2021/09/06 10:44:20;;;;;;;;;;;;;;;16.72;68.70;99116.11;1684945;84;24732;-85
2021/09/06 10:46:58;;;;;;;;;;;;;;;16.82;68.51;99113.52;1686223;84;22154;-85
2021/09/06 10:49:25;;;;;;;;;;;;;;;16.90;68.38;99111.08;1686162;84;26716;-84
2021/09/06 10:51:53;;;;;;;;;;;;;;;16.90;68.15;99107.12;1677103;84;24489;-85
2021/09/06 10:54:19;;;;;;;;;;;;;;;16.96;68.01;99110.08;1686068;83;20311;-85
2021/09/06 10:56:44;;;;;;;;;;;;;;;17.03;67.88;99114.34;1683810;83;20309;-85
2021/09/06 10:59:11;;;;;;;;;;;;;;;17.05;67.64;99105.31;1679462;84;22054;-85
2021/09/06 11:01:38;;;;;;;;;;;;;;;17.07;67.46;99102.03;1684517;84;26012;-84
2021/09/06 11:04:06;;;;;;;;;;;;;;;17.06;67.12;99099.55;1686372;83;24472;-85
2021/09/06 11:06:32;;;;;;;;;;;;;;;17.05;66.78;99104.00;1687978;84;20484;-85
2021/09/06 11:09:00;;;;;;;;;;;;;;;17.13;66.59;99102.84;1690616;84;20322;-85
2021/09/06 11:11:30;;;;;;;;;;;;;;;17.24;66.45;99097.94;1691792;83;22086;-85
2021/09/06 11:13:59;;;;;;;;;;;;;;;17.31;66.27;99102.22;1688396;84;26060;-85
2021/09/06 11:16:27;;;;;;;;;;;;;;;17.38;66.12;99098.92;1688453;84;24513;-85
2021/09/06 11:19:04;;;;;;;;;;;;;;;17.47;65.92;99102.08;1689693;84;20227;-85
2021/09/06 11:21:32;;;;;;;;;;;;;;;17.47;65.61;99099.91;1685965;84;25377;-85
2021/09/06 11:23:58;;;;;;;;;;;;;;;17.49;65.38;99095.34;1688355;84;22070;-85
2021/09/06 11:26:33;;;;;;;;;;;;;;;17.55;65.15;99096.97;1686806;84;26210;-85
2021/09/06 11:29:00;;;;;;;;;;;;;;;17.62;64.92;99096.47;1689601;84;24463;-85
2021/09/06 11:31:30;;;;;;;;;;;;;;;17.65;64.64;99093.05;1689448;84;20240;-85
2021/09/06 11:34:00;;;;;;;;;;;;;;;17.70;64.47;99100.58;1689250;84;24743;-85
2021/09/06 11:36:27;;;;;;;;;;;;;;;17.74;64.35;99091.38;1689363;83;22005;-85
2021/09/06 11:38:53;;;;;;;;;;;;;;;17.84;64.29;99090.42;1687392;83;25974;-85
2021/09/06 11:41:26;;;;;;;;;;;;;;;17.88;64.15;99086.55;1689511;83;25038;-85
2021/09/06 11:43:54;;;;;;;;;;;;;;;17.91;63.99;99084.94;1690137;84;20168;-85
2021/09/06 11:46:21;;;;;;;;;;;;;;;17.97;63.82;99084.88;1681763;84;25346;-85
2021/09/06 11:48:49;;;;;;;;;;;;;;;18.12;63.79;99086.63;1687798;84;22029;-85
2021/09/06 11:51:16;;;;;;;;;;;;;;;18.23;63.72;99089.14;1690683;84;26003;-85
2021/09/06 11:53:58;;;;;;;;;;;;;;;18.32;63.57;99089.66;1688582;83;24485;-85
2021/09/06 11:56:25;;;;;;;;;;;;;;;18.39;63.34;99076.16;1689629;83;20238;-85
2021/09/06 11:58:51;;;;;;;;;;;;;;;18.48;63.18;99075.83;1688934;84;24846;-85
2021/09/06 12:01:18;;;;;;;;;;;;;;;18.51;62.94;99075.53;1689437;83;21998;-85
2021/09/06 12:03:47;;;;;;;;;;;;;;;18.57;62.73;99074.52;1692410;83;26036;-85
2021/09/06 12:06:15;;;;;;;;;;;;;;;18.73;62.64;99073.44;1699116;83;24532;-86
2021/09/06 12:08:51;;;;;;;;;;;;;;;18.81;62.47;99070.08;1690980;83;20235;-85
2021/09/06 12:11:18;;;;;;;;;;;;;;;18.88;62.29;99067.18;1683932;83;24756;-85
2021/09/06 12:13:46;;;;;;;;;;;;;;;18.85;61.85;99063.98;1693090;84;22117;-86
2021/09/06 12:16:15;;;;;;;;;;;;;;;18.84;61.45;99058.33;1691713;84;26651;-85
2021/09/06 12:18:47;;;;;;;;;;;;;;;18.98;61.38;99053.91;1693402;83;25239;-85
2021/09/06 12:21:14;;;;;;;;;;;;;;;19.02;61.14;99056.13;1667921;84;20231;-85
2021/09/06 12:23:41;;;;;;;;;;;;;;;19.03;60.85;99055.64;1661928;85;24826;-85
2021/09/06 12:26:08;;;;;;;;;;;;;;;19.00;60.51;99054.09;1664528;86;21932;-84
2021/09/06 12:28:49;;;;;;;;;;;;;;;18.97;60.26;99057.54;1665734;86;26183;-84
2021/09/06 12:31:16;;;;;;;;;;;;;;;19.00;60.08;99054.58;1653503;86;24404;-85
2021/09/06 12:33:42;;;;;;;;;;;;;;;19.15;60.08;99055.77;1624226;87;20318;-84
2021/09/06 12:36:09;;;;;;;;;;;;;;;19.18;59.92;99050.19;1643717;86;20334;-85
2021/09/06 12:38:35;;;;;;;;;;;;;;;19.17;59.74;99047.19;1649352;86;22033;-84
2021/09/06 12:41:02;;;;;;;;;;;;;;;19.17;59.57;99056.48;1639047;85;26105;-84
2021/09/06 12:43:28;;;;;;;;;;;;;;;19.16;59.35;99053.47;1643771;86;24596;-86
2021/09/06 12:45:54;;;;;;;;;;;;;;;19.15;59.11;99053.96;1645382;86;20584;-84
2021/09/06 12:48:20;;;;;;;;;;;;;;;19.17;58.86;99054.66;1647088;86;24900;-85
2021/09/06 12:50:49;;;;;;;;;;;;;;;19.23;58.62;99050.59;1642965;86;21965;-85
2021/09/06 12:53:15;;;;;;;;;;;;;;;19.32;58.47;99052.34;1644456;86;25970;-84
2021/09/06 12:55:44;;;;;;;;;;;;;;;19.35;58.20;99053.89;1615431;86;20155;-85